TimeMST,TemperatureF,Dew PointF,Humidity,Sea Level PressureIn,VisibilityMPH,Wind Direction,Wind SpeedMPH,Gust SpeedMPH,PrecipitationIn,Events,Conditions,WindDirDegrees,DateUTC
12:12 AM,5.0,-0.4,78,29.86,0.5,West,16.1,-,N/A,Snow,Light Snow,280,2013-02-25 07:12:00
12:32 AM,5.0,-4.0,66,29.86,1.0,West,15.0,-,N/A,,Haze,280,2013-02-25 07:32:00
12:52 AM,5.0,-4.0,66,29.86,1.8,West,11.5,-,N/A,,Haze,270,2013-02-25 07:52:00
1:12 AM,5.0,-4.0,66,29.86,0.8,West,9.2,-,N/A,,Haze,270,2013-02-25 08:12:00
1:32 AM,5.0,-4.0,66,29.87,0.8,West,10.4,-,N/A,,Haze,270,2013-02-25 08:32:00
1:52 AM,5.0,-4.0,66,29.87,0.8,West,15.0,18.4,N/A,,Haze,280,2013-02-25 08:52:00
2:12 AM,5.0,-4.0,66,29.87,0.5,West,17.3,21.9,N/A,,Haze,280,2013-02-25 09:12:00
2:32 AM,5.0,-4.0,66,29.87,10.0,West,16.1,-,N/A,,Scattered Clouds,280,2013-02-25 09:32:00
2:41 AM,5.0,-4.0,66,29.87,10.0,West,15.0,-,N/A,,Scattered Clouds,280,2013-02-25 09:41:00
3:52 AM,5.0,-4.0,66,29.87,10.0,West,12.7,-,N/A,,Clear,270,2013-02-25 10:52:00
4:12 AM,1.4,-5.8,72,29.87,1.0,West,16.1,-,N/A,,Haze,260,2013-02-25 11:12:00
4:32 AM,3.2,-5.8,66,29.87,1.8,West,15.0,-,N/A,,Haze,270,2013-02-25 11:32:00
4:52 AM,1.4,-5.8,72,29.88,0.8,West,17.3,-,N/A,,Haze,280,2013-02-25 11:52:00
5:12 AM,1.4,-5.8,72,29.89,1.5,West,12.7,-,N/A,,Haze,270,2013-02-25 12:12:00
5:32 AM,1.4,-5.8,72,29.89,10.0,WSW,17.3,43.7,N/A,,Scattered Clouds,250,2013-02-25 12:32:00
5:52 AM,3.2,-5.8,66,29.89,10.0,West,18.4,-,N/A,,Clear,280,2013-02-25 12:52:00
6:12 AM,3.2,-5.8,66,29.89,10.0,West,17.3,-,N/A,,Clear,270,2013-02-25 13:12:00
6:32 AM,3.2,-4.0,72,29.89,10.0,West,17.3,-,N/A,,Clear,260,2013-02-25 13:32:00
6:52 AM,3.2,-5.8,66,29.89,10.0,West,13.8,-,N/A,,Clear,260,2013-02-25 13:52:00
7:12 AM,3.2,-4.0,72,29.89,10.0,West,11.5,-,N/A,,Clear,270,2013-02-25 14:12:00
7:32 AM,3.2,-5.8,66,29.91,7.0,WSW,8.1,-,N/A,,Scattered Clouds,240,2013-02-25 14:32:00
7:52 AM,3.2,-5.8,66,29.92,7.0,WSW,10.4,-,N/A,,Scattered Clouds,250,2013-02-25 14:52:00
8:12 AM,3.2,-5.8,66,29.92,10.0,WSW,12.7,17.3,N/A,,Clear,250,2013-02-25 15:12:00
8:32 AM,5.0,-4.0,66,29.92,10.0,North,-9999.0,-,N/A,,Clear,0,2013-02-25 15:32:00
8:52 AM,5.0,-4.0,66,29.92,10.0,WSW,15.0,33.4,N/A,,Clear,250,2013-02-25 15:52:00
9:12 AM,5.0,-2.2,72,29.92,10.0,WSW,8.1,-,N/A,,Clear,250,2013-02-25 16:12:00
9:32 AM,8.6,1.4,73,29.91,10.0,South,5.8,-,N/A,,Clear,170,2013-02-25 16:32:00
9:52 AM,10.4,3.2,73,29.91,10.0,Calm,Calm,-,N/A,,Clear,0,2013-02-25 16:52:00
10:12 AM,10.4,3.2,73,29.91,10.0,South,6.9,-,N/A,,Clear,180,2013-02-25 17:12:00
10:32 AM,14.0,8.6,79,29.91,10.0,South,9.2,-,N/A,,Clear,180,2013-02-25 17:32:00
10:52 AM,15.8,8.6,73,29.91,10.0,WNW,4.6,-,N/A,,Clear,290,2013-02-25 17:52:00
11:12 AM,14.0,6.8,73,29.91,10.0,West,8.1,-,N/A,,Clear,270,2013-02-25 18:12:00
11:32 AM,14.0,5.0,67,29.91,10.0,WSW,5.8,-,N/A,,Clear,240,2013-02-25 18:32:00
11:52 AM,15.8,3.2,58,29.91,10.0,WSW,5.8,-,N/A,,Clear,240,2013-02-25 18:52:00
12:12 PM,19.4,5.0,54,29.89,10.0,SSW,4.6,-,N/A,,Clear,200,2013-02-25 19:12:00
12:32 PM,17.6,5.0,58,29.89,10.0,West,8.1,-,N/A,,Clear,260,2013-02-25 19:32:00
12:52 PM,17.6,6.8,63,29.89,10.0,North,-9999.0,-,N/A,,Clear,0,2013-02-25 19:52:00
1:12 PM,19.4,5.0,54,29.89,10.0,North,-9999.0,-,N/A,,Clear,0,2013-02-25 20:12:00
1:32 PM,19.4,6.8,58,29.89,10.0,West,6.9,-,N/A,,Clear,260,2013-02-25 20:32:00
1:52 PM,19.4,5.0,54,29.89,10.0,WSW,5.8,-,N/A,,Clear,240,2013-02-25 20:52:00
2:12 PM,19.4,5.0,54,29.89,10.0,West,6.9,-,N/A,,Clear,260,2013-02-25 21:12:00
2:32 PM,19.4,3.2,49,29.89,10.0,WSW,5.8,-,N/A,,Clear,250,2013-02-25 21:32:00
2:52 PM,21.2,5.0,50,29.89,10.0,West,8.1,19.6,N/A,,Clear,270,2013-02-25 21:52:00
3:12 PM,23.0,5.0,46,29.89,10.0,West,11.5,-,N/A,,Clear,280,2013-02-25 22:12:00
3:32 PM,23.0,-0.4,36,29.88,10.0,North,-9999.0,-,N/A,,Clear,0,2013-02-25 22:32:00
3:52 PM,23.0,1.4,39,29.88,10.0,North,-9999.0,-,N/A,,Clear,0,2013-02-25 22:52:00
4:12 PM,21.2,5.0,50,29.88,10.0,North,-9999.0,-,N/A,,Clear,0,2013-02-25 23:12:00
4:32 PM,21.2,-0.4,39,29.88,10.0,West,18.4,-,N/A,,Clear,270,2013-02-25 23:32:00
4:52 PM,19.4,-2.2,39,29.88,10.0,North,-9999.0,-,N/A,,Clear,0,2013-02-25 23:52:00
5:12 PM,19.4,-0.4,42,29.87,10.0,North,-9999.0,-,N/A,,Clear,0,2013-02-26 00:12:00
5:32 PM,17.6,-0.4,45,29.87,10.0,North,-9999.0,-,N/A,,Clear,0,2013-02-26 00:32:00
5:52 PM,14.0,-2.2,49,29.87,10.0,West,8.1,-,N/A,,Clear,260,2013-02-26 00:52:00
6:12 PM,14.0,-2.2,49,29.87,10.0,West,12.7,-,N/A,,Clear,270,2013-02-26 01:12:00
6:32 PM,14.0,-4.0,45,29.87,10.0,WSW,8.1,-,N/A,,Clear,250,2013-02-26 01:32:00
6:52 PM,14.0,-4.0,45,29.86,10.0,West,17.3,-,N/A,,Clear,260,2013-02-26 01:52:00
7:12 PM,14.0,-0.4,53,29.86,10.0,West,11.5,-,N/A,,Clear,260,2013-02-26 02:12:00
7:32 PM,14.0,-0.4,53,29.86,10.0,West,16.1,-,N/A,,Clear,260,2013-02-26 02:32:00
7:52 PM,12.2,1.4,62,29.86,10.0,WSW,9.2,19.6,N/A,,Clear,250,2013-02-26 02:52:00
8:12 PM,12.2,1.4,62,29.85,10.0,WSW,12.7,27.6,N/A,,Clear,240,2013-02-26 03:12:00
8:32 PM,12.2,1.4,62,29.86,10.0,WSW,12.7,20.7,N/A,,Clear,240,2013-02-26 03:32:00
8:52 PM,14.0,3.2,62,29.85,10.0,SW,4.6,-,N/A,,Clear,230,2013-02-26 03:52:00
9:12 PM,14.0,1.4,57,29.84,10.0,North,-9999.0,-,N/A,,Clear,0,2013-02-26 04:12:00
9:32 PM,15.8,-2.2,45,29.84,10.0,North,-9999.0,-,N/A,,Clear,0,2013-02-26 04:32:00
9:52 PM,15.8,-0.4,49,29.83,10.0,SW,8.1,-,N/A,,Clear,220,2013-02-26 04:52:00
10:12 PM,15.8,-0.4,49,29.82,10.0,SW,4.6,16.1,N/A,,Scattered Clouds,230,2013-02-26 05:12:00
10:32 PM,17.6,-0.4,45,29.81,10.0,WSW,9.2,12.7,N/A,,Mostly Cloudy,240,2013-02-26 05:32:00
10:52 PM,17.6,-0.4,45,29.80,10.0,SW,6.9,-,N/A,,Mostly Cloudy,220,2013-02-26 05:52:00
11:12 PM,17.6,-0.4,45,29.79,10.0,North,-9999.0,-,N/A,,Overcast,0,2013-02-26 06:12:00
11:32 PM,17.6,1.4,49,29.79,10.0,WSW,8.1,-,N/A,,Overcast,250,2013-02-26 06:32:00
11:52 PM,14.0,5.0,67,29.79,10.0,West,20.7,-,N/A,,Mostly Cloudy,280,2013-02-26 06:52:00